TimePDT,TemperatureF,Dew PointF,Humidity,Sea Level PressureIn,VisibilityMPH,Wind Direction,Wind SpeedMPH,Gust SpeedMPH,PrecipitationIn,Events,Conditions,WindDirDegrees,DateUTC
12:52 AM,87.1,35.1,16,29.72,10.0,Calm,Calm,-,N/A,,Clear,0,2013-07-11 07:52:00
1:52 AM,87.1,35.1,16,29.72,10.0,South,3.5,-,N/A,,Clear,170,2013-07-11 08:52:00
2:52 AM,88.0,37.0,16,29.71,10.0,SW,6.9,-,N/A,,Clear,230,2013-07-11 09:52:00
3:52 AM,88.0,37.0,16,29.71,10.0,WSW,11.5,-,N/A,,Partly Cloudy,240,2013-07-11 10:52:00
4:52 AM,86.0,41.0,20,29.74,10.0,WSW,11.5,-,N/A,,Mostly Cloudy,250,2013-07-11 11:52:00
5:03 AM,87.8,42.8,21,29.92,10.0,West,11.5,20.7,N/A,,Mostly Cloudy,280,2013-07-11 12:03:00
5:52 AM,84.9,41.0,21,29.75,10.0,West,5.8,-,N/A,,Mostly Cloudy,260,2013-07-11 12:52:00
6:52 AM,84.9,42.1,22,29.78,10.0,WSW,8.1,-,N/A,,Partly Cloudy,240,2013-07-11 13:52:00
7:52 AM,84.9,44.1,24,29.80,10.0,SW,8.1,-,N/A,,Mostly Cloudy,230,2013-07-11 14:52:00
8:52 AM,87.1,43.0,21,29.80,10.0,NE,8.1,-,N/A,,Clear,50,2013-07-11 15:52:00
9:52 AM,87.1,45.0,23,29.81,10.0,NE,8.1,-,N/A,,Scattered Clouds,50,2013-07-11 16:52:00
10:52 AM,91.0,45.0,20,29.81,10.0,Calm,Calm,-,N/A,,Partly Cloudy,0,2013-07-11 17:52:00
11:52 AM,93.0,45.0,19,29.80,10.0,Variable,4.6,-,N/A,,Mostly Cloudy,0,2013-07-11 18:52:00
12:52 PM,90.0,46.0,22,29.79,10.0,Variable,5.8,-,N/A,,Mostly Cloudy,0,2013-07-11 19:52:00
1:52 PM,89.1,46.9,23,29.79,10.0,WSW,15.0,20.7,N/A,,Overcast,240,2013-07-11 20:52:00
2:52 PM,87.1,48.0,26,29.78,10.0,West,8.1,-,N/A,,Overcast,270,2013-07-11 21:52:00
3:52 PM,84.9,51.1,31,29.79,10.0,SW,17.3,23.0,N/A,,Overcast,220,2013-07-11 22:52:00
4:52 PM,84.0,50.0,31,29.79,10.0,NW,11.5,-,N/A,,Overcast,310,2013-07-11 23:52:00
5:52 PM,77.0,61.0,58,29.81,10.0,NNW,5.8,-,0.00,Rain,Light Rain,340,2013-07-12 00:52:00
6:52 PM,77.0,59.0,54,29.81,10.0,ESE,8.1,-,0.00,,Mostly Cloudy,110,2013-07-12 01:52:00
7:52 PM,79.0,57.0,47,29.80,10.0,ESE,11.5,-,N/A,,Clear,110,2013-07-12 02:52:00
8:52 PM,78.1,57.0,48,29.80,10.0,ESE,10.4,-,N/A,,Clear,110,2013-07-12 03:52:00
9:52 PM,79.0,55.9,45,29.82,10.0,ESE,12.7,18.4,N/A,,Clear,110,2013-07-12 04:52:00
10:52 PM,78.1,54.0,43,29.82,10.0,ESE,6.9,-,N/A,,Clear,110,2013-07-12 05:52:00
11:52 PM,77.0,55.9,48,29.82,10.0,South,8.1,-,N/A,,Clear,170,2013-07-12 06:52:00